Time;durP1;ratioP1;P1;durP2;ratioP2;P2;SDS_P1;SDS_P2;PMS_P1;PMS_P2;Temp;Humidity;BMP_temperature;BMP_pressure;BME280_temperature;BME280_humidity;BME280_pressure;Samples;Min_cycle;Max_cycle;Signal;HPM_P1;HPM_P2
2022/11/15 00:00:26;;;;;;;28.58;17.60;;;7.30;99.90;;;;;;5049179;28;20397;-67
2022/11/15 00:02:55;;;;;;;27.00;16.63;;;7.30;99.90;;;;;;5030814;28;20094;-67
2022/11/15 00:05:21;;;;;;;27.50;17.67;;;7.30;99.90;;;;;;5049835;28;20505;-68
2022/11/15 00:07:47;;;;;;;30.98;17.45;;;7.30;99.90;;;;;;5048577;28;20051;-68
2022/11/15 00:10:13;;;;;;;29.90;17.15;;;7.30;99.90;;;;;;5049223;28;20048;-68
2022/11/15 00:12:39;;;;;;;27.95;17.95;;;7.30;99.90;;;;;;5050017;28;20410;-68
2022/11/15 00:15:05;;;;;;;23.90;16.60;;;7.30;99.90;;;;;;5047854;28;20040;-67
2022/11/15 00:17:31;;;;;;;23.00;15.65;;;7.30;99.90;;;;;;5033647;28;20484;-67
2022/11/15 00:19:57;;;;;;;22.90;15.85;;;7.30;99.90;;;;;;5048030;28;20044;-68
2022/11/15 00:22:22;;;;;;;25.77;16.20;;;7.30;99.90;;;;;;5049967;28;20045;-67
2022/11/15 00:24:48;;;;;;;23.58;15.45;;;7.30;99.90;;;;;;5047822;28;20597;-67
2022/11/15 00:27:14;;;;;;;26.50;15.85;;;7.30;99.90;;;;;;5049198;28;20059;-67
2022/11/15 00:29:43;;;;;;;25.55;16.23;;;7.30;99.90;;;;;;5032250;28;20040;-67
2022/11/15 00:32:09;;;;;;;23.00;15.10;;;7.30;99.90;;;;;;5048087;28;20494;-68
2022/11/15 00:34:35;;;;;;;26.70;15.65;;;7.30;99.90;;;;;;5049845;28;20053;-68
2022/11/15 00:37:02;;;;;;;25.45;15.43;;;7.30;99.90;;;;;;5047304;28;20052;-68
2022/11/15 00:39:27;;;;;;;23.13;15.90;;;7.20;99.90;;;;;;5049480;28;20051;-68
2022/11/15 00:41:53;;;;;;;22.00;14.85;;;7.20;99.90;;;;;;5064769;28;20048;-68
2022/11/15 00:44:19;;;;;;;23.30;15.73;;;7.20;99.90;;;;;;5067302;28;20048;-68
2022/11/15 00:46:44;;;;;;;22.33;13.95;;;7.20;99.90;;;;;;5047233;28;20037;-68
2022/11/15 00:49:11;;;;;;;24.00;14.52;;;7.10;99.90;;;;;;5066844;28;20048;-67
2022/11/15 00:51:37;;;;;;;22.67;14.00;;;7.10;99.90;;;;;;5049035;28;20048;-68
2022/11/15 00:54:03;;;;;;;19.83;14.23;;;7.10;99.90;;;;;;5047221;28;20105;-67
2022/11/15 00:56:28;;;;;;;26.02;15.05;;;7.00;99.90;;;;;;5049353;28;20071;-67
2022/11/15 00:58:54;;;;;;;22.67;13.95;;;7.00;99.90;;;;;;5030122;28;20148;-68
2022/11/15 01:01:21;;;;;;;19.95;14.57;;;6.90;99.90;;;;;;5046541;28;20048;-67
2022/11/15 01:03:47;;;;;;;22.58;13.32;;;6.90;99.90;;;;;;5030619;28;20044;-68
2022/11/15 01:06:13;;;;;;;18.77;13.20;;;6.90;99.90;;;;;;5032154;28;20125;-67
2022/11/15 01:08:41;;;;;;;18.83;13.90;;;6.80;99.90;;;;;;5048301;28;20044;-67
2022/11/15 01:11:11;;;;;;;20.55;12.98;;;6.80;99.90;;;;;;5046644;28;20056;-68
2022/11/15 01:13:38;;;;;;;19.57;13.73;;;6.80;99.90;;;;;;5048795;28;20487;-68
2022/11/15 01:16:11;;;;;;;21.52;14.25;;;6.80;99.90;;;;;;5046930;28;20055;-67
2022/11/15 01:18:37;;;;;;;23.95;13.85;;;6.70;99.90;;;;;;5048757;28;20052;-68
2022/11/15 01:21:08;;;;;;;19.70;12.95;;;6.70;99.90;;;;;;5046859;28;20041;-68
2022/11/15 01:23:34;;;;;;;18.50;12.75;;;6.70;99.90;;;;;;5048468;28;20041;-67
2022/11/15 01:26:01;;;;;;;25.00;13.43;;;6.60;99.90;;;;;;5030775;28;20039;-67
2022/11/15 01:28:32;;;;;;;20.40;12.77;;;6.60;99.90;;;;;;5047656;28;20044;-67
2022/11/15 01:31:00;;;;;;;21.75;12.85;;;6.50;99.90;;;;;;5048641;28;20060;-67
2022/11/15 01:33:28;;;;;;;19.75;12.10;;;6.50;99.90;;;;;;5046982;28;20048;-67
2022/11/15 01:35:54;;;;;;;20.23;12.93;;;6.50;99.90;;;;;;5031450;28;20053;-67
2022/11/15 01:38:20;;;;;;;21.15;12.30;;;6.40;99.90;;;;;;5047035;28;20056;-67
2022/11/15 01:40:47;;;;;;;18.70;12.60;;;6.40;99.90;;;;;;5047937;28;20473;-67
2022/11/15 01:43:25;;;;;;;25.83;13.65;;;6.40;99.90;;;;;;5047136;28;20063;-67
2022/11/15 01:46:26;;;;;;;20.27;13.70;;;6.30;99.90;;;;;;5046391;28;20047;-67
2022/11/15 01:48:56;;;;;;;19.85;13.07;;;6.30;99.90;;;;;;5046574;28;20067;-67
2022/11/15 01:51:26;;;;;;;26.20;12.63;;;6.40;99.90;;;;;;5030063;28;20495;-67
2022/11/15 01:53:55;;;;;;;19.63;12.82;;;6.40;99.90;;;;;;5030759;28;20841;-68
2022/11/15 01:56:28;;;;;;;17.98;12.20;;;6.50;99.90;;;;;;5047925;28;20044;-67
2022/11/15 01:58:56;;;;;;;20.40;13.20;;;6.50;99.90;;;;;;5045325;28;20537;-67
2022/11/15 02:01:24;;;;;;;18.80;12.55;;;6.50;99.90;;;;;;5047927;28;20059;-67
2022/11/15 02:03:56;;;;;;;19.55;12.38;;;6.50;99.90;;;;;;5046256;28;20372;-68
2022/11/15 02:06:22;;;;;;;18.55;12.88;;;6.60;99.90;;;;;;5048208;28;20064;-67
2022/11/15 02:08:50;;;;;;;19.45;12.68;;;6.60;99.90;;;;;;5046997;28;20084;-68
2022/11/15 02:11:16;;;;;;;18.13;12.82;;;6.60;99.90;;;;;;5030477;28;20040;-68
2022/11/15 02:13:43;;;;;;;18.15;12.27;;;6.70;99.90;;;;;;5047980;28;20041;-67
2022/11/15 02:16:27;;;;;;;19.95;14.18;;;6.70;99.90;;;;;;5064465;28;20530;-67
2022/11/15 02:19:20;;;;;;;20.98;14.05;;;6.70;99.90;;;;;;5031774;28;20057;-67
2022/11/15 02:22:08;;;;;;;23.00;13.70;;;6.70;99.90;;;;;;5035019;28;20102;-68
2022/11/15 02:25:22;;;;;;;19.55;13.70;;;6.70;99.90;;;;;;5062414;28;20045;-67
2022/11/15 02:27:54;;;;;;;19.35;13.52;;;6.80;99.90;;;;;;5048067;28;20490;-67
2022/11/15 02:30:41;;;;;;;19.65;13.95;;;6.80;99.90;;;;;;5046808;28;20095;-67
2022/11/15 02:33:22;;;;;;;21.95;14.25;;;6.80;99.90;;;;;;5046903;28;20124;-68
2022/11/15 02:35:58;;;;;;;23.25;14.65;;;6.90;99.90;;;;;;5065931;28;20045;-68
2022/11/15 02:38:27;;;;;;;25.83;15.98;;;6.90;99.90;;;;;;5046065;28;20501;-67
2022/11/15 02:41:04;;;;;;;20.92;14.80;;;6.90;99.90;;;;;;5048191;28;20439;-68
2022/11/15 02:43:58;;;;;;;21.63;14.80;;;6.90;99.90;;;;;;5046351;28;20158;-68
2022/11/15 02:49:27;;;;;;;21.47;14.90;;;7.00;99.90;;;;;;5047878;28;20060;-68
2022/11/15 02:51:55;;;;;;;23.42;15.07;;;7.00;99.90;;;;;;5029428;28;20079;-68
2022/11/15 02:54:24;;;;;;;22.45;14.65;;;7.10;99.90;;;;;;5047085;28;20044;-68
2022/11/15 02:56:56;;;;;;;25.05;15.43;;;7.00;99.90;;;;;;5047465;28;20403;-68
2022/11/15 02:59:49;;;;;;;25.83;15.63;;;7.10;99.90;;;;;;5045948;28;20052;-68
2022/11/15 03:02:37;;;;;;;24.27;14.35;;;7.10;99.90;;;;;;5065498;28;20503;-68
2022/11/15 03:05:35;;;;;;;22.50;14.50;;;7.10;99.90;;;;;;5046026;28;20048;-68
2022/11/15 03:08:11;;;;;;;23.45;15.13;;;7.10;99.90;;;;;;5040270;28;20511;-67
2022/11/15 03:11:01;;;;;;;23.15;15.60;;;7.20;99.90;;;;;;5050163;28;20044;-67
2022/11/15 03:13:33;;;;;;;26.15;14.40;;;7.20;99.90;;;;;;5035525;28;20056;-67
2022/11/15 03:16:06;;;;;;;21.83;14.50;;;7.20;99.90;;;;;;5050668;28;20086;-67
2022/11/15 03:18:35;;;;;;;23.88;15.65;;;7.30;99.90;;;;;;5050616;28;20056;-67
2022/11/15 03:21:05;;;;;;;22.30;14.18;;;7.30;99.90;;;;;;5049038;28;20418;-68
2022/11/15 03:23:32;;;;;;;26.58;14.88;;;7.30;99.90;;;;;;5051189;28;20079;-67
2022/11/15 03:26:00;;;;;;;22.75;14.65;;;7.30;99.90;;;;;;5032734;28;20435;-68
2022/11/15 03:28:41;;;;;;;23.85;14.32;;;7.30;99.90;;;;;;5051001;28;20513;-68
2022/11/15 03:33:58;;;;;;;22.45;15.23;;;7.30;99.90;;;;;;5049999;28;20056;-68
2022/11/15 03:36:25;;;;;;;21.70;15.02;;;7.40;99.90;;;;;;5068026;28;20048;-68
2022/11/15 03:38:56;;;;;;;24.88;15.35;;;7.30;99.90;;;;;;5048861;28;20052;-67
2022/11/15 03:41:39;;;;;;;23.58;14.32;;;7.40;99.90;;;;;;5049998;28;20127;-68
2022/11/15 03:44:30;;;;;;;23.58;15.00;;;7.40;99.90;;;;;;5049314;28;20055;-67
2022/11/15 03:47:06;;;;;;;22.15;13.40;;;7.40;99.90;;;;;;5008473;28;20052;-68
2022/11/15 03:49:34;;;;;;;20.48;14.20;;;7.40;99.90;;;;;;5050882;28;20080;-67
2022/11/15 03:52:02;;;;;;;24.92;13.75;;;7.40;99.90;;;;;;5048305;28;20399;-67
2022/11/15 03:54:28;;;;;;;22.63;14.85;;;7.40;99.90;;;;;;5050125;28;20595;-68
2022/11/15 03:56:54;;;;;;;26.08;13.93;;;7.40;99.90;;;;;;5048508;28;20127;-68
2022/11/15 03:59:20;;;;;;;23.17;14.07;;;7.40;99.90;;;;;;5049967;28;20136;-68
2022/11/15 04:01:46;;;;;;;22.23;13.88;;;7.40;99.90;;;;;;5067148;28;20131;-68
2022/11/15 04:04:11;;;;;;;23.98;14.90;;;7.40;99.90;;;;;;5048746;28;20056;-67
2022/11/15 04:06:37;;;;;;;23.20;14.38;;;7.40;99.90;;;;;;5049754;28;20108;-68
2022/11/15 04:09:03;;;;;;;23.42;14.02;;;7.40;99.90;;;;;;5048326;28;20050;-67
2022/11/15 04:11:29;;;;;;;20.50;13.27;;;7.50;99.90;;;;;;5049877;28;20149;-67
2022/11/15 04:13:54;;;;;;;24.02;14.02;;;7.50;99.90;;;;;;5047977;28;20051;-68
2022/11/15 04:16:20;;;;;;;27.15;14.15;;;7.50;99.90;;;;;;5013118;28;20087;-68
2022/11/15 04:24:11;;;;;;;26.52;14.43;;;7.50;99.90;;;;;;5041631;28;20161;-68
2022/11/15 04:24:21;;;;;;;26.40;13.63;;;7.50;99.90;;;;;;5049403;28;20040;-68
2022/11/15 04:26:46;;;;;;;33.60;15.65;;;7.60;99.90;;;;;;5048034;28;20037;-68
2022/11/15 04:31:57;;;;;;;29.65;14.32;;;7.60;99.90;;;;;;5035087;28;20127;-68
2022/11/15 04:34:22;;;;;;;28.30;13.60;;;7.60;99.90;;;;;;5031519;28;20132;-67
2022/11/15 04:39:32;;;;;;;25.17;14.27;;;7.60;99.90;;;;;;5047475;28;20044;-68
2022/11/15 04:41:58;;;;;;;29.02;13.75;;;7.60;99.90;;;;;;5027637;28;20512;-67
2022/11/15 04:44:24;;;;;;;26.02;14.02;;;7.60;99.90;;;;;;5040543;28;20072;-67
2022/11/15 04:46:50;;;;;;;31.20;15.32;;;7.60;99.90;;;;;;5049393;28;20076;-68
2022/11/15 04:49:16;;;;;;;28.05;14.05;;;7.60;99.90;;;;;;5048165;28;20048;-68
2022/11/15 04:51:42;;;;;;;28.55;13.93;;;7.60;99.90;;;;;;5048291;28;20101;-68
2022/11/15 04:54:08;;;;;;;38.95;15.02;;;7.70;99.90;;;;;;5048981;28;20040;-68
2022/11/15 04:56:34;;;;;;;29.75;15.27;;;7.70;99.90;;;;;;5030576;28;20127;-68
2022/11/15 04:58:59;;;;;;;26.40;14.07;;;7.70;99.90;;;;;;5049331;28;20036;-68
2022/11/15 05:01:25;;;;;;;28.88;14.55;;;7.70;99.90;;;;;;5046854;28;20056;-68
2022/11/15 05:06:38;;;;;;;31.80;14.73;;;7.80;99.90;;;;;;5048167;28;20056;-68
2022/11/15 05:09:04;;;;;;;26.77;13.18;;;7.80;99.90;;;;;;5047902;28;20052;-67
2022/11/15 05:11:30;;;;;;;37.42;15.73;;;7.80;99.90;;;;;;5066673;28;20090;-68
2022/11/15 05:13:56;;;;;;;38.33;14.98;;;7.80;99.90;;;;;;5047234;28;20368;-68
2022/11/15 05:16:22;;;;;;;34.40;16.30;;;7.80;99.90;;;;;;5048725;28;20051;-68
2022/11/15 05:18:51;;;;;;;43.67;16.95;;;7.90;99.90;;;;;;5064438;28;20048;-68
2022/11/15 05:21:17;;;;;;;41.53;17.33;;;7.90;99.90;;;;;;5048258;28;20375;-68
2022/11/15 05:23:43;;;;;;;48.13;17.85;;;7.90;99.90;;;;;;5031227;28;20052;-67
2022/11/15 05:26:09;;;;;;;41.75;17.65;;;7.90;99.90;;;;;;5047925;28;20510;-68
2022/11/15 05:28:36;;;;;;;42.45;16.77;;;8.00;99.90;;;;;;5048354;28;20518;-68
2022/11/15 05:31:04;;;;;;;42.70;16.15;;;8.00;99.90;;;;;;5064952;28;20040;-68
2022/11/15 05:33:31;;;;;;;41.22;16.60;;;8.00;99.90;;;;;;5048538;28;20048;-68
2022/11/15 05:36:18;;;;;;;34.75;17.05;;;8.00;99.90;;;;;;5029962;28;20084;-68
2022/11/15 05:38:45;;;;;;;35.13;16.20;;;8.00;99.90;;;;;;5035345;28;20056;-68
2022/11/15 05:41:12;;;;;;;45.17;16.05;;;8.00;99.90;;;;;;5065369;28;20137;-67
2022/11/15 05:43:40;;;;;;;42.28;16.60;;;8.00;99.90;;;;;;5047233;28;20383;-68
2022/11/15 05:46:06;;;;;;;34.70;16.38;;;8.00;99.90;;;;;;5048400;28;20087;-68
2022/11/15 05:48:36;;;;;;;36.80;15.50;;;8.10;99.90;;;;;;5029809;28;20076;-68
2022/11/15 05:51:03;;;;;;;41.78;17.73;;;8.10;99.90;;;;;;5048474;28;20071;-68
2022/11/15 05:53:30;;;;;;;39.35;15.93;;;8.10;99.90;;;;;;5045824;28;20055;-68
2022/11/15 05:55:56;;;;;;;41.45;15.90;;;8.10;99.90;;;;;;5048331;28;20139;-68
2022/11/15 05:58:22;;;;;;;35.15;15.77;;;8.10;99.90;;;;;;5046656;28;20159;-68
2022/11/15 06:00:48;;;;;;;42.17;18.00;;;8.20;99.90;;;;;;5031084;28;20454;-67
2022/11/15 06:03:14;;;;;;;32.28;15.95;;;8.30;99.90;;;;;;5042029;28;20498;-68
2022/11/15 06:05:40;;;;;;;55.67;16.05;;;8.30;99.90;;;;;;5045192;28;20128;-68
2022/11/15 06:08:06;;;;;;;44.88;17.05;;;8.30;99.90;;;;;;5047697;28;20053;-68
2022/11/15 06:10:33;;;;;;;45.85;17.77;;;8.40;99.90;;;;;;5029493;28;20461;-67
2022/11/15 06:12:59;;;;;;;42.80;17.50;;;8.40;99.90;;;;;;5048648;28;20048;-68
2022/11/15 06:15:26;;;;;;;38.78;18.58;;;8.50;99.90;;;;;;5046272;28;20091;-67
2022/11/15 06:17:52;;;;;;;45.58;19.35;;;8.50;99.90;;;;;;5047679;28;20478;-68
2022/11/15 06:20:18;;;;;;;46.00;19.10;;;8.50;99.90;;;;;;5047269;28;20153;-68
2022/11/15 06:22:49;;;;;;;46.80;18.42;;;8.50;99.90;;;;;;5046701;28;20087;-68
2022/11/15 06:25:15;;;;;;;47.42;18.95;;;8.50;99.90;;;;;;5048066;28;20080;-68
2022/11/15 06:27:40;;;;;;;44.15;19.92;;;8.60;99.90;;;;;;5046061;28;20048;-68
2022/11/15 06:30:07;;;;;;;51.25;19.80;;;8.60;99.90;;;;;;5048421;28;20110;-68
2022/11/15 06:32:32;;;;;;;47.17;19.90;;;8.60;99.90;;;;;;5045843;28;20127;-68
2022/11/15 06:34:58;;;;;;;49.50;20.20;;;8.60;99.90;;;;;;5043344;28;20123;-68
2022/11/15 06:37:24;;;;;;;45.05;19.05;;;8.70;99.90;;;;;;5046561;28;20429;-68
2022/11/15 06:39:50;;;;;;;43.35;19.70;;;8.70;99.90;;;;;;5046795;28;20138;-68
2022/11/15 06:42:16;;;;;;;49.42;19.80;;;8.80;99.90;;;;;;5044507;28;20061;-68
2022/11/15 06:44:42;;;;;;;59.00;20.23;;;8.70;99.90;;;;;;5027181;28;20132;-68
2022/11/15 06:47:08;;;;;;;55.08;20.63;;;8.80;99.90;;;;;;5051788;28;20135;-68
2022/11/15 06:49:33;;;;;;;45.85;20.70;;;8.80;99.90;;;;;;5048929;28;20110;-68
2022/11/15 06:51:59;;;;;;;55.67;21.63;;;8.80;99.90;;;;;;5051096;28;20131;-68
2022/11/15 06:54:25;;;;;;;63.80;21.92;;;8.90;99.90;;;;;;5050020;28;20087;-68
2022/11/15 06:56:51;;;;;;;62.03;22.70;;;8.90;99.90;;;;;;5046677;28;20058;-68
2022/11/15 06:59:16;;;;;;;53.00;22.77;;;8.90;99.90;;;;;;5051037;28;20522;-68
2022/11/15 07:01:42;;;;;;;54.05;23.05;;;8.90;99.90;;;;;;5049456;28;20067;-68
2022/11/15 07:04:08;;;;;;;60.38;23.65;;;9.00;99.90;;;;;;5050216;28;20052;-68
2022/11/15 07:06:34;;;;;;;59.40;22.95;;;8.90;99.90;;;;;;5030392;28;20056;-68
2022/11/15 07:09:02;;;;;;;51.30;20.60;;;9.00;99.90;;;;;;5050201;28;20080;-68
2022/11/15 07:11:28;;;;;;;58.15;20.67;;;9.00;99.90;;;;;;5048789;28;20091;-68
2022/11/15 07:13:54;;;;;;;48.72;19.52;;;9.10;99.90;;;;;;5050545;28;20080;-68
2022/11/15 07:16:19;;;;;;;42.80;19.27;;;9.20;99.90;;;;;;5048766;28;20182;-68
2022/11/15 07:18:45;;;;;;;47.58;19.50;;;9.30;99.90;;;;;;5049607;28;20048;-68
2022/11/15 07:21:12;;;;;;;39.42;18.13;;;9.30;99.90;;;;;;5033515;28;20049;-68
2022/11/15 07:23:39;;;;;;;42.78;18.05;;;9.40;99.90;;;;;;5044464;28;20062;-68
2022/11/15 07:26:05;;;;;;;41.38;17.52;;;9.40;99.90;;;;;;5050953;28;20417;-68
2022/11/15 07:28:31;;;;;;;36.17;17.20;;;9.50;99.90;;;;;;5048466;28;20060;-68
2022/11/15 07:30:57;;;;;;;41.08;17.35;;;9.40;99.90;;;;;;5032746;28;20048;-68
2022/11/15 07:33:23;;;;;;;42.83;17.83;;;9.40;99.90;;;;;;5049211;28;20087;-68
2022/11/15 07:35:49;;;;;;;43.88;18.10;;;9.40;99.90;;;;;;5049481;28;20095;-68
2022/11/15 07:38:19;;;;;;;33.13;14.95;;;9.40;99.90;;;;;;5049526;28;20098;-68
2022/11/15 07:40:45;;;;;;;34.50;15.82;;;9.40;99.90;;;;;;5048098;28;20127;-68
2022/11/15 07:43:10;;;;;;;38.50;16.35;;;9.40;99.90;;;;;;5033441;28;20128;-68
2022/11/15 07:45:44;;;;;;;29.48;13.98;;;9.50;99.90;;;;;;5048436;28;20127;-68
2022/11/15 07:48:10;;;;;;;32.53;14.88;;;9.50;99.90;;;;;;5034360;28;20055;-68
2022/11/15 07:50:36;;;;;;;34.08;15.63;;;9.50;99.90;;;;;;5047212;28;20473;-68
2022/11/15 07:53:02;;;;;;;31.58;14.77;;;9.50;99.90;;;;;;5046256;28;20059;-68
2022/11/15 07:55:29;;;;;;;36.75;14.68;;;9.50;99.90;;;;;;5049446;28;20045;-68
2022/11/15 07:58:07;;;;;;;31.02;15.43;;;9.60;99.90;;;;;;5032851;28;20060;-69
2022/11/15 08:00:33;;;;;;;40.17;16.33;;;9.60;99.90;;;;;;5049968;28;20048;-68
2022/11/15 08:03:07;;;;;;;29.48;15.38;;;9.60;99.90;;;;;;5066330;28;20052;-68
2022/11/15 08:05:35;;;;;;;31.13;15.90;;;9.70;99.90;;;;;;5050011;28;20055;-68
2022/11/15 08:08:00;;;;;;;35.85;16.17;;;9.70;99.90;;;;;;5048370;28;20043;-69
2022/11/15 08:10:28;;;;;;;28.13;16.17;;;9.70;99.90;;;;;;5049551;28;20048;-68
2022/11/15 08:13:05;;;;;;;37.08;17.15;;;9.80;99.90;;;;;;5067371;28;20133;-68
2022/11/15 08:15:32;;;;;;;30.38;16.15;;;9.80;99.90;;;;;;5039572;28;20541;-68
2022/11/15 08:18:00;;;;;;;29.52;16.35;;;9.90;99.90;;;;;;5047203;28;20042;-69
2022/11/15 08:20:29;;;;;;;32.80;16.55;;;9.90;99.90;;;;;;5045126;28;20044;-69
2022/11/15 08:23:00;;;;;;;27.25;15.50;;;9.90;99.90;;;;;;5046034;28;20822;-68
2022/11/15 08:25:28;;;;;;;27.15;15.60;;;10.00;99.90;;;;;;5029221;28;20040;-69
2022/11/15 08:27:55;;;;;;;28.98;15.68;;;10.10;99.90;;;;;;5046352;28;20065;-68
2022/11/15 08:30:21;;;;;;;25.70;14.38;;;10.10;99.90;;;;;;5047198;28;20040;-69
2022/11/15 08:32:49;;;;;;;31.90;16.40;;;10.20;99.90;;;;;;5045278;28;20040;-68
2022/11/15 08:35:14;;;;;;;26.77;15.98;;;10.20;99.90;;;;;;5067514;28;20387;-67
2022/11/15 08:37:40;;;;;;;30.80;16.75;;;10.30;99.90;;;;;;5047095;28;20105;-66
2022/11/15 08:40:07;;;;;;;35.80;17.60;;;10.30;99.90;;;;;;5067652;28;20048;-66
2022/11/15 08:42:33;;;;;;;34.53;17.67;;;10.40;99.90;;;;;;5047474;28;20048;-66
2022/11/15 08:44:59;;;;;;;34.47;17.15;;;10.40;99.90;;;;;;5065912;28;20052;-67
2022/11/15 08:47:24;;;;;;;32.75;15.35;;;10.50;99.90;;;;;;5048597;28;20059;-68
2022/11/15 08:49:50;;;;;;;30.08;15.57;;;10.50;99.90;;;;;;5047729;28;20040;-68
2022/11/15 08:52:16;;;;;;;44.15;18.67;;;10.50;99.90;;;;;;5048675;28;20124;-68
2022/11/15 08:54:41;;;;;;;31.85;17.40;;;10.60;99.90;;;;;;5030396;28;20044;-68
2022/11/15 08:57:09;;;;;;;34.90;17.02;;;10.70;99.90;;;;;;5066998;28;20060;-68
2022/11/15 08:59:36;;;;;;;33.00;17.10;;;10.80;99.90;;;;;;5046830;28;20044;-68
2022/11/15 09:02:03;;;;;;;30.38;15.48;;;10.90;99.90;;;;;;5048632;28;20095;-68
2022/11/15 09:04:29;;;;;;;26.27;16.13;;;10.90;99.90;;;;;;5047760;28;20059;-68
2022/11/15 09:06:55;;;;;;;25.80;14.63;;;11.00;99.90;;;;;;5061792;28;20372;-68
2022/11/15 09:09:20;;;;;;;23.25;14.57;;;11.10;99.90;;;;;;5028252;28;20067;-68
2022/11/15 09:11:47;;;;;;;28.55;15.48;;;11.20;99.90;;;;;;5045734;28;20040;-68
2022/11/15 09:14:13;;;;;;;24.98;14.35;;;11.20;99.90;;;;;;5030966;28;20335;-68
2022/11/15 09:16:40;;;;;;;34.22;15.40;;;11.20;99.90;;;;;;5059588;28;20593;-68
2022/11/15 09:19:06;;;;;;;26.10;14.73;;;11.30;99.90;;;;;;5028832;28;20044;-68
2022/11/15 09:21:31;;;;;;;26.23;14.82;;;11.30;99.90;;;;;;5060643;28;20036;-68
2022/11/15 09:23:58;;;;;;;23.35;14.38;;;11.40;99.90;;;;;;5039677;28;20517;-68
2022/11/15 09:26:23;;;;;;;24.50;14.43;;;11.40;99.90;;;;;;5047644;28;20093;-68
2022/11/15 09:28:49;;;;;;;19.70;14.23;;;11.50;99.90;;;;;;5020983;28;20044;-68
2022/11/15 09:31:16;;;;;;;24.52;14.48;;;11.60;99.90;;;;;;5032047;28;20053;-68
2022/11/15 09:33:44;;;;;;;26.63;14.27;;;11.70;99.90;;;;;;5035995;28;20123;-68
2022/11/15 09:36:10;;;;;;;18.92;13.70;;;11.70;99.90;;;;;;5047120;28;20052;-68
2022/11/15 09:38:37;;;;;;;22.73;14.70;;;11.70;99.90;;;;;;5041446;28;20055;-68
2022/11/15 09:41:11;;;;;;;21.05;14.60;;;11.70;99.90;;;;;;5046605;28;20093;-69
2022/11/15 09:44:09;;;;;;;29.25;15.48;;;11.80;99.90;;;;;;5044219;28;20052;-69
2022/11/15 09:46:52;;;;;;;27.52;14.82;;;11.80;99.90;;;;;;5046104;28;20094;-68
2022/11/15 09:49:18;;;;;;;26.75;14.00;;;11.90;99.90;;;;;;5047964;28;20522;-67
2022/11/15 09:51:53;;;;;;;18.88;14.68;;;12.00;99.90;;;;;;5063895;28;20094;-69
2022/11/15 09:54:29;;;;;;;20.58;15.27;;;12.00;99.90;;;;;;5022218;28;20476;-68
2022/11/15 09:57:03;;;;;;;26.65;14.55;;;12.00;99.90;;;;;;5047515;28;20133;-69
2022/11/15 09:59:41;;;;;;;23.98;15.65;;;12.00;99.90;;;;;;5029827;28;20105;-68
2022/11/15 10:02:41;;;;;;;24.17;16.13;;;12.00;99.90;;;;;;5041676;28;20073;-68
2022/11/15 10:05:12;;;;;;;26.60;14.70;;;12.00;99.90;;;;;;5064478;28;20123;-67
2022/11/15 10:07:55;;;;;;;26.52;15.80;;;12.00;99.90;;;;;;5029930;28;20721;-68
2022/11/15 10:10:43;;;;;;;25.38;15.73;;;12.00;99.90;;;;;;5047888;28;20051;-68
2022/11/15 10:13:23;;;;;;;24.58;15.75;;;12.00;99.90;;;;;;5051940;28;20048;-68
2022/11/15 10:15:50;;;;;;;29.85;15.88;;;12.10;99.90;;;;;;5044113;28;20052;-67
2022/11/15 10:18:21;;;;;;;23.00;13.85;;;12.00;99.90;;;;;;5054641;28;20045;-67
2022/11/15 10:20:47;;;;;;;18.80;14.27;;;12.00;99.90;;;;;;5036643;28;20060;-67
2022/11/15 10:23:18;;;;;;;24.90;14.52;;;12.10;99.90;;;;;;5034098;28;20052;-67
2022/11/15 10:25:43;;;;;;;19.08;13.65;;;12.10;99.90;;;;;;5048373;28;20079;-67
2022/11/15 10:28:22;;;;;;;17.55;13.40;;;12.00;99.90;;;;;;5067428;28;20468;-67
2022/11/15 10:30:52;;;;;;;15.60;12.25;;;12.10;99.90;;;;;;5064121;28;20040;-67
2022/11/15 10:33:21;;;;;;;18.98;13.35;;;12.00;99.90;;;;;;5047221;28;20051;-67
2022/11/15 10:35:46;;;;;;;18.02;12.90;;;12.00;99.90;;;;;;5048679;28;20044;-67
2022/11/15 10:38:13;;;;;;;16.65;11.93;;;12.00;99.90;;;;;;5049282;28;20457;-67
2022/11/15 10:40:40;;;;;;;21.60;12.48;;;12.00;99.90;;;;;;5069221;28;20066;-67
2022/11/15 10:43:09;;;;;;;21.27;12.77;;;12.00;99.90;;;;;;5066780;28;20704;-67
2022/11/15 10:45:35;;;;;;;14.70;11.23;;;12.00;99.90;;;;;;5051268;28;20052;-68
2022/11/15 10:48:13;;;;;;;17.08;11.80;;;12.00;99.90;;;;;;5048996;28;20074;-67
2022/11/15 10:50:41;;;;;;;18.60;12.30;;;12.00;99.90;;;;;;5022858;28;20150;-67
2022/11/15 10:53:30;;;;;;;14.32;11.32;;;12.00;99.90;;;;;;5067944;28;20065;-67
2022/11/15 10:56:00;;;;;;;15.52;11.52;;;12.00;99.90;;;;;;5061899;28;20083;-67
2022/11/15 10:58:37;;;;;;;14.45;10.65;;;12.00;99.90;;;;;;5050664;28;20055;-67
2022/11/15 11:01:10;;;;;;;11.13;9.63;;;12.00;99.90;;;;;;5060620;28;20048;-67
2022/11/15 11:03:38;;;;;;;16.08;10.30;;;12.00;99.90;;;;;;5044476;28;20088;-68
2022/11/15 11:06:25;;;;;;;16.45;10.15;;;12.00;99.90;;;;;;5067549;28;20046;-67
2022/11/15 11:09:21;;;;;;;18.48;10.18;;;12.00;99.90;;;;;;5047631;28;20416;-67
2022/11/15 11:11:52;;;;;;;16.48;9.80;;;12.00;99.90;;;;;;5066787;28;20468;-67
2022/11/15 11:14:36;;;;;;;12.25;9.90;;;12.00;99.90;;;;;;5049604;28;20040;-68
2022/11/15 11:17:18;;;;;;;14.18;9.25;;;12.10;99.90;;;;;;5066309;28;20548;-67
2022/11/15 11:20:06;;;;;;;12.95;9.80;;;12.10;99.90;;;;;;5066394;28;20090;-67
2022/11/15 11:22:47;;;;;;;14.57;9.23;;;12.00;99.90;;;;;;5031826;28;20099;-67
2022/11/15 11:25:46;;;;;;;12.75;9.60;;;12.00;99.90;;;;;;5048247;28;20051;-67
2022/11/15 11:28:49;;;;;;;15.43;9.60;;;12.00;99.90;;;;;;5049482;28;20056;-67
2022/11/15 11:31:38;;;;;;;20.60;9.02;;;12.00;99.90;;;;;;5047068;28;20626;-67
2022/11/15 11:34:13;;;;;;;11.15;8.82;;;12.00;99.90;;;;;;5046364;28;20040;-67
2022/11/15 11:36:55;;;;;;;18.77;9.07;;;12.00;99.90;;;;;;5064193;28;20055;-67
2022/11/15 11:39:38;;;;;;;14.80;8.65;;;12.00;99.90;;;;;;5063815;28;20044;-67
2022/11/15 11:42:30;;;;;;;12.60;8.75;;;12.10;99.90;;;;;;5059371;28;20488;-67
2022/11/15 11:45:14;;;;;;;13.30;8.48;;;12.10;99.90;;;;;;5046698;28;20060;-67
2022/11/15 11:47:46;;;;;;;14.48;8.35;;;12.20;99.90;;;;;;5058387;28;20036;-69
2022/11/15 11:50:19;;;;;;;12.35;8.73;;;12.20;99.90;;;;;;5067681;28;20048;-67
2022/11/15 11:53:08;;;;;;;11.00;9.45;;;12.20;99.90;;;;;;5060996;28;20057;-67
2022/11/15 11:55:44;;;;;;;12.85;9.68;;;12.20;99.90;;;;;;5048929;28;20041;-67
2022/11/15 11:58:35;;;;;;;14.18;9.43;;;12.30;99.90;;;;;;5048980;28;20161;-67
2022/11/15 12:01:16;;;;;;;12.07;9.55;;;12.30;99.90;;;;;;5047528;28;20055;-68
2022/11/15 12:03:50;;;;;;;;;;;12.30;99.90;;;;;;5050467;28;20048;-67
2022/11/15 12:06:25;;;;;;;10.65;9.55;;;12.40;99.90;;;;;;5048428;28;19920;-66
2022/11/15 12:09:12;;;;;;;11.55;10.35;;;12.40;99.90;;;;;;5066458;28;20440;-68
2022/11/15 12:11:50;;;;;;;11.40;9.73;;;12.40;99.90;;;;;;5049976;28;20063;-68
2022/11/15 12:14:55;;;;;;;11.63;9.90;;;12.50;99.90;;;;;;5047758;28;20045;-69
2022/11/15 12:17:31;;;;;;;13.07;10.40;;;12.50;99.90;;;;;;5024652;28;20065;-69
2022/11/15 12:20:09;;;;;;;13.20;11.00;;;12.60;99.90;;;;;;5032731;28;20464;-69
2022/11/15 12:22:47;;;;;;;18.55;11.00;;;12.70;99.90;;;;;;5065112;28;20041;-69
2022/11/15 12:25:16;;;;;;;20.02;14.70;;;12.80;99.90;;;;;;5049315;28;20058;-69
2022/11/15 12:27:52;;;;;;;21.13;10.50;;;12.90;99.90;;;;;;5048412;28;20040;-68
2022/11/15 12:30:21;;;;;;;12.40;8.75;;;13.00;99.90;;;;;;5066455;28;20102;-68
2022/11/15 12:33:00;;;;;;;11.63;8.07;;;13.00;99.90;;;;;;5063874;28;20518;-67
2022/11/15 12:35:41;;;;;;;9.55;7.32;;;12.90;99.90;;;;;;5058865;28;20059;-67
2022/11/15 12:38:12;;;;;;;7.80;6.03;;;12.90;99.90;;;;;;5046128;28;20123;-69
2022/11/15 12:40:59;;;;;;;9.32;6.03;;;12.70;99.90;;;;;;5047998;28;20083;-68
2022/11/15 12:43:45;;;;;;;8.23;5.20;;;12.70;99.90;;;;;;5044571;28;20055;-69
2022/11/15 12:46:20;;;;;;;10.18;5.35;;;12.60;99.90;;;;;;5065551;28;20052;-68
2022/11/15 12:48:47;;;;;;;13.13;4.90;;;12.60;99.90;;;;;;5046175;28;20044;-68
2022/11/15 12:51:13;;;;;;;8.43;5.10;;;12.60;99.90;;;;;;5048804;28;20051;-68
2022/11/15 12:53:39;;;;;;;7.55;4.50;;;12.60;99.90;;;;;;5047800;28;20048;-69
2022/11/15 12:56:17;;;;;;;10.40;4.45;;;12.60;99.90;;;;;;5031809;28;20475;-69
2022/11/15 12:58:51;;;;;;;5.10;4.28;;;12.80;99.90;;;;;;5049232;28;20048;-68
2022/11/15 13:01:37;;;;;;;6.30;4.10;;;13.00;99.90;;;;;;5046571;28;20049;-68
2022/11/15 13:04:18;;;;;;;4.07;3.67;;;13.10;99.90;;;;;;5047794;28;20048;-68
2022/11/15 13:06:46;;;;;;;6.50;3.25;;;13.10;99.90;;;;;;5063250;28;20063;-68
2022/11/15 13:09:33;;;;;;;9.57;3.25;;;13.10;99.90;;;;;;5047127;28;20048;-67
2022/11/15 13:12:07;;;;;;;3.85;2.90;;;13.00;99.90;;;;;;5039127;28;20045;-69